ENZV/SVG METAR and TAF weather

Enter ICAO airport designator
Station Type Date Time Source
ENZV METAR 2018/07/21 22:50 UTC NOAA

ENZV 212250Z VRB03KT 9999 SCT021 15/12 Q1011


Station Type Date Time Source
ENZV Decoded METAR 2018/07/21 22:50 UTC NOAA

Stavanger / Sola, Norway (ENZV) 58-53N 005-38E 9M
Jul 21, 2018 - 06:50 PM EDT / 2018.07.21 2250 UTC
Wind: Variable at 3 MPH (3 KT):0
Visibility: greater than 7 mile(s):0
Sky conditions: partly cloudy
Temperature: 59 F (15 C)
Dew Point: 53 F (12 C)
Relative Humidity: 82%
Pressure (altimeter): 29.85 in. Hg (1011 hPa)
ob: ENZV 212250Z VRB03KT 9999 SCT021 15/12 Q1011
cycle: 23

Station Type Date Time Source
ENZV TAF 2018/07/21 21:21 UTC NOAA

TAF
AMD ENZV 212109Z 2121/2218 30005KT 9999 BKN015
TEMPO 2121/2204 3000 DZRA BR BKN005
BECMG 2209/2212 24010KT PROB30
TEMPO 2215/2218 BKN012


Example: see airport list